createdAt,value
2023-02-28T00:00:38.325Z,95.98
2023-02-28T00:03:05.326Z,95.55
2023-02-28T00:05:32.337Z,95.71
2023-02-28T00:07:59.204Z,95.73
2023-02-28T00:10:30.045Z,95.30
2023-02-28T00:13:01.350Z,95.83
2023-02-28T00:15:28.361Z,95.70
2023-02-28T00:17:55.369Z,95.31
2023-02-28T00:20:22.476Z,95.13
2023-02-28T00:22:52.111Z,94.83
2023-02-28T00:25:24.967Z,94.61
2023-02-28T00:27:52.916Z,95.06
2023-02-28T00:30:22.778Z,95.31
2023-02-28T00:32:50.529Z,95.31
2023-02-28T00:35:18.000Z,95.19
2023-02-28T00:37:44.959Z,94.55
2023-02-28T00:40:13.405Z,95.29
2023-02-28T00:42:40.737Z,95.37
2023-02-28T00:45:09.472Z,95.47
2023-02-28T00:47:38.650Z,95.41
2023-02-28T00:50:06.748Z,95.32
2023-02-28T00:52:33.705Z,95.16
2023-02-28T00:55:00.696Z,95.22
2023-02-28T00:57:27.667Z,95.06
2023-02-28T00:59:55.509Z,95.89
2023-02-28T01:02:23.744Z,95.50
2023-02-28T01:04:53.513Z,95.12
2023-02-28T01:07:20.435Z,95.11
2023-02-28T01:09:47.377Z,94.89
2023-02-28T01:12:14.387Z,95.43
2023-02-28T01:14:41.354Z,95.65
2023-02-28T01:17:08.541Z,95.80
2023-02-28T01:19:36.542Z,95.87
2023-02-28T01:22:06.322Z,95.29
2023-02-28T01:24:34.557Z,95.43
2023-02-28T01:27:01.508Z,95.31
2023-02-28T01:29:28.491Z,95.93
2023-02-28T01:31:55.542Z,94.99
2023-02-28T01:34:22.561Z,95.05
2023-02-28T01:36:49.776Z,94.80
2023-02-28T01:39:16.950Z,94.84
2023-02-28T01:41:44.318Z,94.77
2023-02-28T01:44:48.279Z,95.08
2023-02-28T01:47:15.919Z,94.62
2023-02-28T01:49:43.244Z,94.31
2023-02-28T01:52:16.047Z,95.06
2023-02-28T01:54:43.078Z,94.81
2023-02-28T01:57:18.617Z,95.36
2023-02-28T02:00:09.092Z,95.24
2023-02-28T02:02:49.661Z,94.70
2023-02-28T02:05:23.106Z,95.01
2023-02-28T02:07:55.355Z,94.69
2023-02-28T02:10:30.282Z,94.99
2023-02-28T02:13:30.262Z,95.21
2023-02-28T02:16:26.891Z,95.25
2023-02-28T02:19:20.103Z,95.00
2023-02-28T02:21:52.672Z,94.43
2023-02-28T02:24:40.738Z,94.68
2023-02-28T02:27:34.415Z,94.54
2023-02-28T02:30:09.844Z,94.78
2023-02-28T02:32:39.511Z,94.93
2023-02-28T02:35:18.511Z,94.54
2023-02-28T02:38:16.618Z,94.42
2023-02-28T02:40:54.217Z,94.50
2023-02-28T02:43:29.801Z,94.66
2023-02-28T02:46:00.796Z,95.02
2023-02-28T02:48:32.067Z,94.80
2023-02-28T02:51:12.988Z,94.81
2023-02-28T02:53:50.462Z,94.32
2023-02-28T02:56:22.215Z,94.67
2023-02-28T02:58:52.132Z,94.57
2023-02-28T03:01:29.119Z,94.54
2023-02-28T03:04:04.065Z,94.62
2023-02-28T03:06:31.258Z,94.58
2023-02-28T03:08:58.227Z,95.19
2023-02-28T03:11:25.341Z,95.32
2023-02-28T03:14:20.102Z,95.11
2023-02-28T03:16:56.911Z,94.55
2023-02-28T03:19:33.905Z,94.91
2023-02-28T03:22:39.656Z,94.43
2023-02-28T03:25:26.092Z,94.69
2023-02-28T03:28:03.145Z,95.00
2023-02-28T03:30:45.101Z,94.95
2023-02-28T03:33:17.177Z,94.61
2023-02-28T03:35:49.541Z,94.83
2023-02-28T03:38:37.206Z,95.38
2023-02-28T03:41:11.918Z,95.27
2023-02-28T03:43:42.086Z,95.37
2023-02-28T03:46:12.959Z,95.54
2023-02-28T03:48:49.261Z,95.67
2023-02-28T03:51:24.385Z,96.17
2023-02-28T03:54:07.679Z,96.26
2023-02-28T03:56:41.943Z,96.49
2023-02-28T03:59:19.584Z,96.70
2023-02-28T04:01:49.111Z,96.46
2023-02-28T04:04:18.058Z,96.56
2023-02-28T04:06:45.941Z,96.51
2023-02-28T04:09:15.281Z,97.00
2023-02-28T04:11:54.678Z,96.05
2023-02-28T04:14:21.622Z,95.25
2023-02-28T04:16:48.860Z,94.68
2023-02-28T04:19:16.248Z,93.54
2023-02-28T04:21:46.690Z,93.44
2023-02-28T04:24:19.180Z,93.85
2023-02-28T04:26:54.907Z,94.24
2023-02-28T04:29:35.813Z,94.48
2023-02-28T04:32:03.973Z,94.55
2023-02-28T04:34:32.933Z,94.81
2023-02-28T04:37:17.033Z,94.43
2023-02-28T04:39:44.726Z,94.80
2023-02-28T04:42:12.780Z,94.92
2023-02-28T04:44:39.958Z,94.60
2023-02-28T04:47:07.096Z,94.84
2023-02-28T04:49:34.066Z,94.96
2023-02-28T04:52:01.141Z,94.69
2023-02-28T04:54:29.467Z,95.35
2023-02-28T04:56:56.874Z,95.66
2023-02-28T04:59:23.864Z,95.75
2023-02-28T05:01:51.050Z,95.69
2023-02-28T05:04:18.364Z,95.75
2023-02-28T05:06:45.796Z,96.05
2023-02-28T05:09:12.861Z,96.47
2023-02-28T05:11:40.764Z,96.47
2023-02-28T05:14:15.329Z,96.27
2023-02-28T05:16:42.609Z,96.44
2023-02-28T05:19:10.010Z,96.38
2023-02-28T05:21:42.217Z,96.73
2023-02-28T05:24:13.180Z,96.99
2023-02-28T05:26:42.707Z,97.04
2023-02-28T05:29:10.556Z,97.03
2023-02-28T05:31:39.211Z,97.35
2023-02-28T05:34:06.174Z,97.03
2023-02-28T05:36:33.498Z,97.35
2023-02-28T05:39:00.630Z,97.05
2023-02-28T05:41:28.304Z,97.04
2023-02-28T05:43:55.541Z,97.04
2023-02-28T05:46:22.653Z,96.78
2023-02-28T05:48:50.326Z,97.01
2023-02-28T05:51:18.457Z,97.04
2023-02-28T05:53:45.714Z,96.77
2023-02-28T05:56:12.905Z,96.48
2023-02-28T05:58:39.789Z,96.10
2023-02-28T06:01:33.889Z,95.74
2023-02-28T06:04:02.240Z,95.84
2023-02-28T06:06:30.663Z,96.50
2023-02-28T06:08:58.205Z,96.83
2023-02-28T06:11:28.672Z,97.17
2023-02-28T06:13:57.610Z,97.17
2023-02-28T06:16:25.594Z,97.11
2023-02-28T06:18:53.823Z,96.86
2023-02-28T06:21:20.725Z,97.31
2023-02-28T06:23:47.660Z,97.79
2023-02-28T06:26:14.876Z,97.70
2023-02-28T06:28:41.767Z,97.56
2023-02-28T06:31:14.676Z,97.81
2023-02-28T06:33:43.557Z,97.89
2023-02-28T06:36:12.852Z,97.93
2023-02-28T06:38:40.231Z,97.91
2023-02-28T06:41:07.916Z,98.24
2023-02-28T06:43:38.738Z,97.78
2023-02-28T06:46:08.545Z,98.35
2023-02-28T06:48:36.801Z,98.45
2023-02-28T06:51:07.981Z,98.33
2023-02-28T06:53:35.162Z,98.22
2023-02-28T06:56:13.161Z,98.90
2023-02-28T06:58:40.499Z,98.48
2023-02-28T07:01:09.148Z,98.09
2023-02-28T07:03:36.991Z,98.39
2023-02-28T07:06:05.149Z,98.38
2023-02-28T07:08:32.859Z,98.39
2023-02-28T07:11:00.224Z,98.36
2023-02-28T07:13:27.219Z,98.33
2023-02-28T07:15:59.738Z,98.52
2023-02-28T07:18:27.479Z,98.26
2023-02-28T07:20:54.417Z,97.91
2023-02-28T07:23:22.040Z,97.93
2023-02-28T07:25:50.016Z,98.11
2023-02-28T07:28:17.270Z,97.86
2023-02-28T07:30:44.381Z,97.63
2023-02-28T07:33:11.363Z,97.10
2023-02-28T07:35:38.406Z,97.25
2023-02-28T07:38:05.653Z,97.33
2023-02-28T07:40:32.573Z,98.16
2023-02-28T07:43:01.502Z,97.24
2023-02-28T07:45:32.889Z,96.86
2023-02-28T07:47:59.784Z,97.38
2023-02-28T07:50:27.259Z,97.35
2023-02-28T07:52:54.318Z,97.48
2023-02-28T07:55:21.284Z,97.48
2023-02-28T07:57:48.147Z,98.20
2023-02-28T08:00:15.307Z,97.78
2023-02-28T08:02:42.324Z,97.40
2023-02-28T08:05:09.869Z,97.03
2023-02-28T08:07:37.069Z,97.23
2023-02-28T08:10:04.362Z,96.44
2023-02-28T08:12:31.318Z,96.65
2023-02-28T08:14:58.222Z,95.72
2023-02-28T08:17:25.120Z,95.44
2023-02-28T08:19:52.155Z,95.11
2023-02-28T08:22:19.044Z,95.26
2023-02-28T08:24:46.020Z,95.79
2023-02-28T08:27:12.944Z,95.82
2023-02-28T08:29:40.353Z,95.84
2023-02-28T08:32:14.688Z,95.32
2023-02-28T08:34:48.175Z,95.64
2023-02-28T08:37:15.247Z,96.22
2023-02-28T08:39:42.242Z,96.28
2023-02-28T08:42:09.139Z,95.51
2023-02-28T08:44:36.070Z,95.21
2023-02-28T08:47:02.987Z,94.63
2023-02-28T08:49:29.943Z,94.61
2023-02-28T08:51:58.253Z,94.13
2023-02-28T08:54:25.951Z,94.76
2023-02-28T08:56:53.577Z,94.24
2023-02-28T08:59:20.735Z,93.36
2023-02-28T09:01:47.670Z,92.87
2023-02-28T09:04:18.365Z,91.71
2023-02-28T09:06:47.259Z,92.63
2023-02-28T09:09:14.340Z,92.26
2023-02-28T09:11:41.308Z,91.12
2023-02-28T09:14:08.735Z,90.96
2023-02-28T09:16:36.505Z,89.14
2023-02-28T09:19:03.671Z,88.71
2023-02-28T09:21:30.757Z,89.72
2023-02-28T09:23:57.881Z,90.54
2023-02-28T09:26:32.383Z,90.05
2023-02-28T09:29:06.185Z,88.95
2023-02-28T09:31:33.293Z,87.53
2023-02-28T09:34:00.632Z,88.06
2023-02-28T09:36:43.217Z,88.60
2023-02-28T09:39:11.220Z,89.44
2023-02-28T09:41:48.369Z,90.23
2023-02-28T09:44:23.963Z,88.64
2023-02-28T10:17:54.785Z,92.19
2023-02-28T10:20:32.315Z,91.19
2023-02-28T10:23:09.133Z,90.13
2023-02-28T10:25:38.285Z,89.26
2023-02-28T10:28:15.807Z,87.81
2023-02-28T10:30:47.442Z,88.64
2023-02-28T10:33:35.423Z,89.65
2023-02-28T10:36:03.992Z,89.38
2023-02-28T10:38:36.941Z,90.57
2023-02-28T10:41:11.580Z,89.57
2023-02-28T10:43:40.841Z,89.12
2023-02-28T10:46:27.127Z,88.21
2023-02-28T10:49:07.992Z,88.89
2023-02-28T10:51:40.672Z,88.66
2023-02-28T10:54:17.587Z,89.09
2023-02-28T10:56:44.480Z,87.90
2023-02-28T10:59:30.495Z,87.18
2023-02-28T11:01:58.399Z,87.91
2023-02-28T11:04:33.703Z,87.34
2023-02-28T11:07:19.271Z,88.63
2023-02-28T11:09:50.369Z,87.88
2023-02-28T11:12:46.963Z,87.44
2023-02-28T11:15:24.612Z,87.43
2023-02-28T11:18:14.804Z,87.71
2023-02-28T11:20:42.069Z,87.88
2023-02-28T11:23:15.067Z,87.38
2023-02-28T11:25:52.590Z,86.43
2023-02-28T11:28:34.892Z,86.35
2023-02-28T11:31:07.668Z,86.85
2023-02-28T11:33:46.126Z,86.70
2023-02-28T11:36:20.138Z,88.18
2023-02-28T11:38:50.695Z,88.43
2023-02-28T11:41:47.759Z,87.67
2023-02-28T11:44:44.589Z,85.75
2023-02-28T11:47:16.820Z,85.95
2023-02-28T11:50:17.632Z,88.32
2023-02-28T11:52:50.841Z,88.47
2023-02-28T11:55:32.464Z,88.45
2023-02-28T11:58:18.009Z,87.89
2023-02-28T12:01:05.500Z,87.70
2023-02-28T12:04:05.874Z,88.10
2023-02-28T12:06:46.943Z,87.86
2023-02-28T12:09:19.688Z,89.00
2023-02-28T12:11:52.365Z,88.39
2023-02-28T12:14:34.696Z,88.49
2023-02-28T12:17:36.403Z,86.60
2023-02-28T12:20:15.446Z,87.95
2023-02-28T12:23:13.242Z,87.74
2023-02-28T12:26:03.499Z,87.86
2023-02-28T12:28:37.576Z,88.17
2023-02-28T12:31:11.129Z,87.81
2023-02-28T12:33:45.729Z,88.64
2023-02-28T12:36:20.115Z,89.68
2023-02-28T12:39:06.258Z,90.61
2023-02-28T12:41:40.273Z,89.26
2023-02-28T12:44:13.795Z,87.71
2023-02-28T12:46:50.007Z,88.45
2023-02-28T12:49:22.999Z,89.15
2023-02-28T12:51:51.283Z,88.61
2023-02-28T12:54:25.712Z,89.65
2023-02-28T12:57:12.525Z,89.30
2023-02-28T13:00:03.895Z,88.91
2023-02-28T13:02:52.632Z,89.09
2023-02-28T13:05:37.661Z,89.60
2023-02-28T13:08:41.680Z,90.14
2023-02-28T13:11:21.041Z,89.85
2023-02-28T13:13:49.152Z,89.14
2023-02-28T13:16:16.200Z,88.78
2023-02-28T13:18:45.722Z,89.62
2023-02-28T13:21:28.916Z,90.04
2023-02-28T13:24:05.077Z,90.66
2023-02-28T13:26:32.003Z,90.80
2023-02-28T13:29:01.672Z,90.36
2023-02-28T13:31:29.312Z,90.10
2023-02-28T13:34:00.160Z,88.97
2023-02-28T13:36:32.774Z,90.56
2023-02-28T13:39:24.473Z,89.97
2023-02-28T13:41:51.381Z,89.96
2023-02-28T13:44:27.832Z,90.12
2023-02-28T13:46:54.798Z,89.23
2023-02-28T13:49:26.022Z,89.02
2023-02-28T13:52:23.882Z,89.62
2023-02-28T13:55:14.626Z,90.09
2023-02-28T13:58:13.951Z,90.73
2023-02-28T14:01:12.967Z,90.99
2023-02-28T14:04:12.424Z,91.56
2023-02-28T14:06:47.934Z,92.02
2023-02-28T14:09:35.879Z,91.17
2023-02-28T14:12:39.946Z,92.15
2023-02-28T14:15:36.605Z,91.93
2023-02-28T14:18:12.360Z,91.53
2023-02-28T14:20:42.153Z,90.78
2023-02-28T14:23:26.540Z,91.87
2023-02-28T14:26:06.129Z,91.71
2023-02-28T14:29:00.138Z,92.44
2023-02-28T14:31:35.837Z,92.05
2023-02-28T14:34:21.387Z,91.93
2023-02-28T14:36:49.658Z,92.60
2023-02-28T14:39:21.532Z,92.46
2023-02-28T14:41:48.851Z,93.25
2023-02-28T14:44:18.959Z,92.45
2023-02-28T14:46:49.546Z,92.34
2023-02-28T14:49:19.534Z,91.40
2023-02-28T14:51:48.444Z,91.98
2023-02-28T14:54:17.809Z,92.12
2023-02-28T14:56:44.815Z,93.22
2023-02-28T14:59:35.919Z,92.96
2023-02-28T15:02:19.405Z,93.08
2023-02-28T15:04:57.799Z,93.09
2023-02-28T15:07:29.613Z,93.50
2023-02-28T15:10:11.497Z,93.13
2023-02-28T15:12:40.555Z,93.94
2023-02-28T15:15:15.102Z,93.01
2023-02-28T15:17:48.001Z,92.58
2023-02-28T15:20:16.663Z,92.45
2023-02-28T15:22:45.847Z,92.82
2023-02-28T15:25:16.690Z,92.97
2023-02-28T15:27:51.180Z,92.29
2023-02-28T15:30:21.952Z,92.56
2023-02-28T15:33:06.153Z,92.43
2023-02-28T15:35:34.748Z,92.87
2023-02-28T15:38:17.167Z,93.29
2023-02-28T15:40:54.580Z,94.34
2023-02-28T15:43:32.342Z,94.28
2023-02-28T15:46:09.430Z,94.33
2023-02-28T15:48:45.009Z,94.20
2023-02-28T15:51:21.717Z,94.18
2023-02-28T15:53:55.616Z,94.56
2023-02-28T15:56:31.997Z,94.18
2023-02-28T15:59:04.176Z,93.81
2023-02-28T16:01:35.133Z,93.43
2023-02-28T16:04:05.508Z,93.43
2023-02-28T16:06:36.748Z,93.88
2023-02-28T16:09:05.705Z,93.76
2023-02-28T16:11:36.410Z,94.07
2023-02-28T16:14:04.419Z,92.67
2023-02-28T16:16:33.860Z,91.84
2023-02-28T16:19:01.084Z,90.03
2023-02-28T16:21:28.688Z,89.56
2023-02-28T16:23:56.060Z,89.02
2023-02-28T16:26:26.123Z,88.98
2023-02-28T16:28:53.574Z,88.77
2023-02-28T16:31:21.424Z,88.55
2023-02-28T16:33:48.678Z,88.82
2023-02-28T16:36:22.298Z,91.31
2023-02-28T16:38:49.654Z,92.81
2023-02-28T16:41:20.544Z,91.15
2023-02-28T16:43:50.620Z,89.99
2023-02-28T16:46:18.207Z,89.28
2023-02-28T16:48:47.170Z,91.31
2023-02-28T16:51:18.768Z,92.76
2023-02-28T16:53:46.845Z,92.02
2023-02-28T16:56:32.239Z,91.91
2023-02-28T16:59:02.365Z,90.83
2023-02-28T17:01:30.279Z,89.98
2023-02-28T17:03:57.885Z,87.16
2023-02-28T17:06:29.333Z,89.34
2023-02-28T17:08:58.870Z,88.67
2023-02-28T17:11:26.699Z,88.14
2023-02-28T17:13:55.150Z,88.48
2023-02-28T17:16:36.712Z,90.09
2023-02-28T17:19:06.830Z,88.31
2023-02-28T17:21:35.259Z,86.93
2023-02-28T17:24:02.545Z,87.50
2023-02-28T17:26:30.188Z,86.76
2023-02-28T17:28:58.765Z,87.22
2023-02-28T17:31:27.496Z,87.51
2023-02-28T17:33:57.887Z,87.81
2023-02-28T17:36:27.238Z,87.47
2023-02-28T17:38:56.398Z,89.03
2023-02-28T17:41:23.826Z,87.71
2023-02-28T17:43:51.681Z,87.07
2023-02-28T17:46:24.997Z,86.91
2023-02-28T17:48:54.161Z,86.69
2023-02-28T17:51:23.250Z,87.44
2023-02-28T17:53:50.517Z,87.40
2023-02-28T17:56:24.345Z,88.38
2023-02-28T17:58:53.254Z,89.43
2023-02-28T18:01:25.397Z,89.33
2023-02-28T18:03:52.988Z,88.78
2023-02-28T18:06:32.447Z,91.01
2023-02-28T18:08:59.560Z,92.33
2023-02-28T18:11:42.188Z,91.96
2023-02-28T18:14:09.838Z,91.61
2023-02-28T18:16:37.071Z,90.62
2023-02-28T18:19:04.258Z,90.13
2023-02-28T18:21:31.921Z,91.78
2023-02-28T18:23:59.157Z,92.66
2023-02-28T18:26:26.647Z,93.50
2023-02-28T18:28:53.740Z,92.41
2023-02-28T18:31:21.808Z,92.79
2023-02-28T18:33:50.639Z,91.47
2023-02-28T18:36:19.226Z,92.78
2023-02-28T18:38:46.795Z,93.19
2023-02-28T18:41:14.055Z,93.16
2023-02-28T18:43:41.166Z,92.93
2023-02-28T18:46:11.534Z,92.80
2023-02-28T18:48:39.609Z,92.93
2023-02-28T18:51:11.903Z,93.12
2023-02-28T18:53:40.765Z,93.90
2023-02-28T18:56:09.760Z,93.02
2023-02-28T18:58:37.081Z,93.22
2023-02-28T19:01:13.225Z,93.02
2023-02-28T19:03:40.381Z,93.02
2023-02-28T19:06:07.869Z,93.88
2023-02-28T19:08:34.963Z,94.47
2023-02-28T19:11:08.409Z,94.46
2023-02-28T19:13:35.658Z,93.92
2023-02-28T19:16:04.754Z,94.48
2023-02-28T19:18:32.377Z,94.03
2023-02-28T19:20:59.962Z,94.62
2023-02-28T19:23:27.927Z,95.34
2023-02-28T19:25:56.712Z,95.36
2023-02-28T19:28:24.612Z,95.25
2023-02-28T19:30:53.208Z,95.46
2023-02-28T19:33:20.980Z,95.86
2023-02-28T19:35:48.882Z,95.77
2023-02-28T19:38:17.813Z,96.45
2023-02-28T19:40:45.655Z,95.84
2023-02-28T19:43:12.856Z,96.14
2023-02-28T19:45:40.475Z,95.22
2023-02-28T19:48:09.959Z,95.26
2023-02-28T19:50:37.817Z,95.76
2023-02-28T19:53:05.101Z,95.51
2023-02-28T19:55:32.302Z,96.21
2023-02-28T19:57:59.470Z,96.22
2023-02-28T20:00:26.695Z,95.88
2023-02-28T20:02:54.027Z,95.71
2023-02-28T20:05:21.141Z,96.13
2023-02-28T20:07:48.412Z,96.92
2023-02-28T20:10:16.213Z,97.05
2023-02-28T20:12:43.790Z,96.68
2023-02-28T20:15:11.191Z,96.54
2023-02-28T20:17:38.898Z,96.36
2023-02-28T20:20:07.810Z,96.47
2023-02-28T20:22:38.219Z,97.18
2023-02-28T20:25:08.282Z,97.00
2023-02-28T20:27:35.479Z,97.27
2023-02-28T20:30:02.990Z,96.78
2023-02-28T20:32:30.398Z,97.27
2023-02-28T20:34:57.441Z,96.94
2023-02-28T20:37:24.561Z,96.90
2023-02-28T20:39:53.256Z,97.07
2023-02-28T20:42:20.580Z,97.07
2023-02-28T20:44:47.738Z,97.28
2023-02-28T20:47:14.975Z,97.30
2023-02-28T20:49:42.104Z,97.23
2023-02-28T20:52:09.205Z,97.11
2023-02-28T20:54:36.333Z,97.61
2023-02-28T20:57:03.528Z,97.25
2023-02-28T20:59:30.707Z,97.29
2023-02-28T21:01:57.803Z,97.85
2023-02-28T21:04:24.933Z,97.47
2023-02-28T21:06:52.132Z,97.85
2023-02-28T21:09:19.505Z,97.79
2023-02-28T21:11:46.582Z,97.80
2023-02-28T21:14:15.971Z,97.66
2023-02-28T21:16:44.840Z,97.57
2023-02-28T21:19:12.200Z,97.48
2023-02-28T21:21:44.677Z,97.76
2023-02-28T21:24:13.929Z,98.12
2023-02-28T21:26:42.317Z,97.96
2023-02-28T21:29:09.436Z,97.62
2023-02-28T21:31:37.278Z,97.60
2023-02-28T21:34:07.378Z,97.59
2023-02-28T21:36:45.353Z,97.34
2023-02-28T21:39:16.709Z,97.36
2023-02-28T21:41:43.939Z,97.73
2023-02-28T21:44:18.752Z,97.35
2023-02-28T21:46:47.767Z,97.52
2023-02-28T21:49:15.944Z,97.56
2023-02-28T21:51:43.448Z,97.77
2023-02-28T21:54:11.225Z,97.82
2023-02-28T21:56:38.970Z,98.14
2023-02-28T21:59:09.403Z,97.77
2023-02-28T22:01:43.594Z,97.80
2023-02-28T22:04:21.134Z,97.26
2023-02-28T22:06:53.964Z,97.29
2023-02-28T22:09:21.581Z,97.70
2023-02-28T22:11:48.787Z,97.94
2023-02-28T22:14:16.104Z,97.58
2023-02-28T22:16:52.852Z,97.81
2023-02-28T22:19:21.676Z,96.87
2023-02-28T22:21:50.017Z,96.88
2023-02-28T22:24:23.474Z,97.21
2023-02-28T22:26:51.389Z,97.76
2023-02-28T22:29:18.801Z,97.31
2023-02-28T22:31:46.143Z,97.08
2023-02-28T22:34:13.494Z,96.78
2023-02-28T22:36:42.420Z,97.51
2023-02-28T22:39:10.407Z,97.60
2023-02-28T22:41:37.817Z,97.00
2023-02-28T22:44:07.297Z,97.29
2023-02-28T22:46:35.887Z,97.07
2023-02-28T22:49:07.066Z,97.14
2023-02-28T22:51:35.104Z,96.68
2023-02-28T22:54:02.699Z,96.87
2023-02-28T22:56:30.805Z,96.86
2023-02-28T22:59:00.078Z,96.64
2023-02-28T23:01:32.790Z,96.71
2023-02-28T23:03:59.982Z,96.80
2023-02-28T23:06:33.620Z,96.49
2023-02-28T23:09:04.345Z,97.11
2023-02-28T23:11:34.430Z,96.80
2023-02-28T23:14:01.907Z,96.76
2023-02-28T23:16:33.899Z,96.98
2023-02-28T23:19:04.436Z,97.00
2023-02-28T23:21:31.816Z,96.56
2023-02-28T23:24:00.966Z,96.51
2023-02-28T23:26:28.268Z,97.05
2023-02-28T23:28:55.421Z,96.65
2023-02-28T23:31:22.562Z,96.56
2023-02-28T23:33:49.668Z,96.42
2023-02-28T23:36:17.456Z,96.61
2023-02-28T23:38:48.078Z,97.15
2023-02-28T23:41:16.095Z,96.69
2023-02-28T23:43:43.412Z,96.77
2023-02-28T23:46:12.083Z,96.35
2023-02-28T23:48:40.232Z,96.67
2023-02-28T23:51:09.379Z,97.11
2023-02-28T23:53:38.707Z,97.31
2023-02-28T23:56:07.356Z,96.97
2023-02-28T23:58:35.134Z,96.85
